sensor_id;sensor_type;location;lat;lon;timestamp;temperature;humidity
790;DHT22;378;48.844;9.156;2023-03-19T00:01:29;10.10;99.90
790;DHT22;378;48.844;9.156;2023-03-19T00:03:56;10.20;99.90
790;DHT22;378;48.844;9.156;2023-03-19T00:06:23;10.20;99.90
790;DHT22;378;48.844;9.156;2023-03-19T00:08:50;10.30;99.90
790;DHT22;378;48.844;9.156;2023-03-19T00:11:17;10.30;99.90
790;DHT22;378;48.844;9.156;2023-03-19T00:13:44;10.30;99.90
790;DHT22;378;48.844;9.156;2023-03-19T00:16:12;10.30;99.90
790;DHT22;378;48.844;9.156;2023-03-19T00:18:39;10.30;99.90
790;DHT22;378;48.844;9.156;2023-03-19T00:21:06;10.30;99.90
790;DHT22;378;48.844;9.156;2023-03-19T00:23:33;10.30;99.90
790;DHT22;378;48.844;9.156;2023-03-19T00:26:00;10.30;99.90
790;DHT22;378;48.844;9.156;2023-03-19T00:28:29;10.40;99.90
790;DHT22;378;48.844;9.156;2023-03-19T00:30:56;10.40;99.90
790;DHT22;378;48.844;9.156;2023-03-19T00:33:25;10.30;99.90
790;DHT22;378;48.844;9.156;2023-03-19T00:35:51;10.20;99.90
790;DHT22;378;48.844;9.156;2023-03-19T00:38:18;10.20;99.90
790;DHT22;378;48.844;9.156;2023-03-19T00:40:45;10.30;99.90
790;DHT22;378;48.844;9.156;2023-03-19T00:43:13;10.30;99.90
790;DHT22;378;48.844;9.156;2023-03-19T00:45:39;10.30;99.90
790;DHT22;378;48.844;9.156;2023-03-19T00:48:06;10.20;99.90
790;DHT22;378;48.844;9.156;2023-03-19T00:50:34;10.20;99.90
790;DHT22;378;48.844;9.156;2023-03-19T00:53:01;10.10;99.90
790;DHT22;378;48.844;9.156;2023-03-19T00:55:28;10.00;99.90
790;DHT22;378;48.844;9.156;2023-03-19T00:57:56;10.00;99.90
790;DHT22;378;48.844;9.156;2023-03-19T01:00:23;9.90;99.90
790;DHT22;378;48.844;9.156;2023-03-19T01:02:49;10.00;99.90
790;DHT22;378;48.844;9.156;2023-03-19T01:05:16;10.10;99.90
790;DHT22;378;48.844;9.156;2023-03-19T01:07:45;10.10;99.90
790;DHT22;378;48.844;9.156;2023-03-19T01:10:11;10.00;99.90
790;DHT22;378;48.844;9.156;2023-03-19T01:12:38;10.00;99.90
790;DHT22;378;48.844;9.156;2023-03-19T01:15:06;10.00;99.90
790;DHT22;378;48.844;9.156;2023-03-19T01:17:33;10.00;99.90
790;DHT22;378;48.844;9.156;2023-03-19T01:20:00;10.00;99.90
790;DHT22;378;48.844;9.156;2023-03-19T01:22:27;10.00;99.90
790;DHT22;378;48.844;9.156;2023-03-19T01:24:55;10.10;99.90
790;DHT22;378;48.844;9.156;2023-03-19T01:27:22;10.20;99.90
790;DHT22;378;48.844;9.156;2023-03-19T01:29:49;10.20;99.90
790;DHT22;378;48.844;9.156;2023-03-19T01:32:17;10.20;99.90
790;DHT22;378;48.844;9.156;2023-03-19T01:34:43;10.10;99.90
790;DHT22;378;48.844;9.156;2023-03-19T01:37:11;10.10;99.90
790;DHT22;378;48.844;9.156;2023-03-19T01:39:38;10.10;99.90
790;DHT22;378;48.844;9.156;2023-03-19T01:42:06;10.20;99.90
790;DHT22;378;48.844;9.156;2023-03-19T01:44:35;10.30;99.90
790;DHT22;378;48.844;9.156;2023-03-19T01:47:05;10.30;99.90
790;DHT22;378;48.844;9.156;2023-03-19T01:49:36;10.40;99.90
790;DHT22;378;48.844;9.156;2023-03-19T01:52:06;10.40;99.90
790;DHT22;378;48.844;9.156;2023-03-19T01:54:35;10.40;99.90
790;DHT22;378;48.844;9.156;2023-03-19T01:57:06;10.50;99.90
790;DHT22;378;48.844;9.156;2023-03-19T01:59:36;10.50;99.90
790;DHT22;378;48.844;9.156;2023-03-19T02:02:06;10.60;99.90
790;DHT22;378;48.844;9.156;2023-03-19T02:04:38;10.70;99.90
790;DHT22;378;48.844;9.156;2023-03-19T02:07:07;10.90;99.90
790;DHT22;378;48.844;9.156;2023-03-19T02:09:35;11.00;99.90
790;DHT22;378;48.844;9.156;2023-03-19T02:12:03;11.10;99.90
790;DHT22;378;48.844;9.156;2023-03-19T02:14:32;11.10;99.90
790;DHT22;378;48.844;9.156;2023-03-19T02:16:59;11.20;99.90
790;DHT22;378;48.844;9.156;2023-03-19T02:19:31;11.20;99.90
790;DHT22;378;48.844;9.156;2023-03-19T02:22:01;11.30;99.90
790;DHT22;378;48.844;9.156;2023-03-19T02:24:32;11.30;99.90
790;DHT22;378;48.844;9.156;2023-03-19T02:27:01;11.20;99.90
790;DHT22;378;48.844;9.156;2023-03-19T02:29:28;11.00;99.90
790;DHT22;378;48.844;9.156;2023-03-19T02:31:55;10.60;99.90
790;DHT22;378;48.844;9.156;2023-03-19T02:34:34;10.20;99.90
790;DHT22;378;48.844;9.156;2023-03-19T02:37:04;9.70;99.90
790;DHT22;378;48.844;9.156;2023-03-19T02:39:37;9.50;99.90
790;DHT22;378;48.844;9.156;2023-03-19T02:42:08;9.30;99.90
790;DHT22;378;48.844;9.156;2023-03-19T02:44:35;9.20;99.90
790;DHT22;378;48.844;9.156;2023-03-19T02:47:03;9.20;99.90
790;DHT22;378;48.844;9.156;2023-03-19T02:49:30;9.20;99.90
790;DHT22;378;48.844;9.156;2023-03-19T02:51:56;9.20;99.90
790;DHT22;378;48.844;9.156;2023-03-19T02:54:23;9.10;99.90
790;DHT22;378;48.844;9.156;2023-03-19T02:56:50;9.10;99.90
790;DHT22;378;48.844;9.156;2023-03-19T02:59:19;9.00;99.90
790;DHT22;378;48.844;9.156;2023-03-19T03:01:46;9.00;99.90
790;DHT22;378;48.844;9.156;2023-03-19T03:04:13;9.10;99.90
790;DHT22;378;48.844;9.156;2023-03-19T03:06:41;9.10;99.90
790;DHT22;378;48.844;9.156;2023-03-19T03:09:08;9.10;99.90
790;DHT22;378;48.844;9.156;2023-03-19T03:11:35;9.10;99.90
790;DHT22;378;48.844;9.156;2023-03-19T03:14:02;9.10;99.90
790;DHT22;378;48.844;9.156;2023-03-19T03:16:30;9.10;99.90
790;DHT22;378;48.844;9.156;2023-03-19T03:18:57;9.10;99.90
790;DHT22;378;48.844;9.156;2023-03-19T03:21:24;9.10;99.90
790;DHT22;378;48.844;9.156;2023-03-19T03:23:51;9.10;99.90
790;DHT22;378;48.844;9.156;2023-03-19T03:26:18;9.20;99.90
790;DHT22;378;48.844;9.156;2023-03-19T03:28:45;9.20;99.90
790;DHT22;378;48.844;9.156;2023-03-19T03:31:12;9.30;99.90
790;DHT22;378;48.844;9.156;2023-03-19T03:33:40;9.30;99.90
790;DHT22;378;48.844;9.156;2023-03-19T03:36:07;9.30;99.90
790;DHT22;378;48.844;9.156;2023-03-19T03:38:34;9.30;99.90
790;DHT22;378;48.844;9.156;2023-03-19T03:41:01;9.30;99.90
790;DHT22;378;48.844;9.156;2023-03-19T03:43:29;9.30;99.90
790;DHT22;378;48.844;9.156;2023-03-19T03:45:56;9.30;99.90
790;DHT22;378;48.844;9.156;2023-03-19T03:48:23;9.30;99.90
790;DHT22;378;48.844;9.156;2023-03-19T03:50:51;9.30;99.90
790;DHT22;378;48.844;9.156;2023-03-19T03:53:18;9.30;99.90
790;DHT22;378;48.844;9.156;2023-03-19T03:55:45;9.30;99.90
790;DHT22;378;48.844;9.156;2023-03-19T03:58:12;9.20;99.90
790;DHT22;378;48.844;9.156;2023-03-19T04:00:39;9.20;99.90
790;DHT22;378;48.844;9.156;2023-03-19T04:03:06;9.30;99.90
790;DHT22;378;48.844;9.156;2023-03-19T04:05:33;9.30;99.90
790;DHT22;378;48.844;9.156;2023-03-19T04:08:02;9.30;99.90
790;DHT22;378;48.844;9.156;2023-03-19T04:10:29;9.30;99.90
790;DHT22;378;48.844;9.156;2023-03-19T04:12:56;9.30;99.90
790;DHT22;378;48.844;9.156;2023-03-19T04:15:24;9.30;99.90
790;DHT22;378;48.844;9.156;2023-03-19T04:17:51;9.20;99.90
790;DHT22;378;48.844;9.156;2023-03-19T04:20:18;9.20;99.90
790;DHT22;378;48.844;9.156;2023-03-19T04:22:47;9.20;99.90
790;DHT22;378;48.844;9.156;2023-03-19T04:25:15;9.30;99.90
790;DHT22;378;48.844;9.156;2023-03-19T04:27:42;9.30;99.90
790;DHT22;378;48.844;9.156;2023-03-19T04:30:10;9.30;99.90
790;DHT22;378;48.844;9.156;2023-03-19T04:32:37;9.30;99.90
790;DHT22;378;48.844;9.156;2023-03-19T04:35:05;9.30;99.90
790;DHT22;378;48.844;9.156;2023-03-19T04:37:32;9.30;99.90
790;DHT22;378;48.844;9.156;2023-03-19T04:39:59;9.30;99.90
790;DHT22;378;48.844;9.156;2023-03-19T04:42:27;9.40;99.90
790;DHT22;378;48.844;9.156;2023-03-19T04:44:54;9.40;99.90
790;DHT22;378;48.844;9.156;2023-03-19T04:47:21;9.40;99.90
790;DHT22;378;48.844;9.156;2023-03-19T04:49:48;9.40;99.90
790;DHT22;378;48.844;9.156;2023-03-19T04:52:15;9.40;99.90
790;DHT22;378;48.844;9.156;2023-03-19T04:54:42;9.50;99.90
790;DHT22;378;48.844;9.156;2023-03-19T04:57:09;9.50;99.90
790;DHT22;378;48.844;9.156;2023-03-19T04:59:37;9.50;99.90
790;DHT22;378;48.844;9.156;2023-03-19T05:02:04;9.50;99.90
790;DHT22;378;48.844;9.156;2023-03-19T05:04:31;9.50;99.90
790;DHT22;378;48.844;9.156;2023-03-19T05:06:58;9.50;99.90
790;DHT22;378;48.844;9.156;2023-03-19T05:09:25;9.40;99.90
790;DHT22;378;48.844;9.156;2023-03-19T05:11:52;9.40;99.90
790;DHT22;378;48.844;9.156;2023-03-19T05:14:18;9.40;99.90
790;DHT22;378;48.844;9.156;2023-03-19T05:16:47;9.40;99.90
790;DHT22;378;48.844;9.156;2023-03-19T05:19:14;9.30;99.90
790;DHT22;378;48.844;9.156;2023-03-19T05:21:41;9.30;99.90
790;DHT22;378;48.844;9.156;2023-03-19T05:24:08;9.20;99.90
790;DHT22;378;48.844;9.156;2023-03-19T05:26:35;9.20;99.90
790;DHT22;378;48.844;9.156;2023-03-19T05:29:02;9.20;99.90
790;DHT22;378;48.844;9.156;2023-03-19T05:31:29;9.10;99.90
790;DHT22;378;48.844;9.156;2023-03-19T05:33:57;9.10;99.90
790;DHT22;378;48.844;9.156;2023-03-19T05:36:24;9.10;99.90
790;DHT22;378;48.844;9.156;2023-03-19T05:38:51;9.10;99.90
790;DHT22;378;48.844;9.156;2023-03-19T05:41:18;9.10;99.90
790;DHT22;378;48.844;9.156;2023-03-19T05:43:45;9.00;99.90
790;DHT22;378;48.844;9.156;2023-03-19T05:46:14;9.00;99.90
790;DHT22;378;48.844;9.156;2023-03-19T05:48:41;9.10;99.90
790;DHT22;378;48.844;9.156;2023-03-19T05:51:09;9.10;99.90
790;DHT22;378;48.844;9.156;2023-03-19T05:53:36;9.10;99.90
790;DHT22;378;48.844;9.156;2023-03-19T05:56:04;9.10;99.90
790;DHT22;378;48.844;9.156;2023-03-19T05:58:31;9.10;99.90
790;DHT22;378;48.844;9.156;2023-03-19T06:00:58;9.10;99.90
790;DHT22;378;48.844;9.156;2023-03-19T06:03:24;9.10;99.90
790;DHT22;378;48.844;9.156;2023-03-19T06:05:52;9.10;99.90
790;DHT22;378;48.844;9.156;2023-03-19T06:08:20;9.20;99.90
790;DHT22;378;48.844;9.156;2023-03-19T06:10:48;9.30;99.90
790;DHT22;378;48.844;9.156;2023-03-19T06:13:14;9.30;99.90
790;DHT22;378;48.844;9.156;2023-03-19T06:15:41;9.40;99.90
790;DHT22;378;48.844;9.156;2023-03-19T06:18:08;9.40;99.90
790;DHT22;378;48.844;9.156;2023-03-19T06:20:35;9.40;99.90
790;DHT22;378;48.844;9.156;2023-03-19T06:23:02;9.50;99.90
790;DHT22;378;48.844;9.156;2023-03-19T06:25:30;9.50;99.90
790;DHT22;378;48.844;9.156;2023-03-19T06:27:57;9.50;99.90
790;DHT22;378;48.844;9.156;2023-03-19T06:30:24;9.50;99.90
790;DHT22;378;48.844;9.156;2023-03-19T06:32:51;9.60;99.90
790;DHT22;378;48.844;9.156;2023-03-19T06:35:18;9.60;99.90
790;DHT22;378;48.844;9.156;2023-03-19T06:37:44;9.80;99.90
790;DHT22;378;48.844;9.156;2023-03-19T06:40:12;9.90;99.90
790;DHT22;378;48.844;9.156;2023-03-19T06:42:43;9.90;99.90
790;DHT22;378;48.844;9.156;2023-03-19T06:45:10;10.00;99.90
790;DHT22;378;48.844;9.156;2023-03-19T06:47:39;10.00;99.90
790;DHT22;378;48.844;9.156;2023-03-19T06:50:08;9.90;99.90
790;DHT22;378;48.844;9.156;2023-03-19T06:52:35;10.00;99.90
790;DHT22;378;48.844;9.156;2023-03-19T06:55:02;10.00;99.90
790;DHT22;378;48.844;9.156;2023-03-19T06:57:30;10.00;99.90
790;DHT22;378;48.844;9.156;2023-03-19T06:59:58;10.10;99.90
790;DHT22;378;48.844;9.156;2023-03-19T07:02:25;10.20;99.90
790;DHT22;378;48.844;9.156;2023-03-19T07:04:52;10.20;99.90
790;DHT22;378;48.844;9.156;2023-03-19T07:07:18;10.30;99.90
790;DHT22;378;48.844;9.156;2023-03-19T07:09:45;10.30;99.90
790;DHT22;378;48.844;9.156;2023-03-19T07:12:12;10.40;99.90
790;DHT22;378;48.844;9.156;2023-03-19T07:14:39;10.50;99.90
790;DHT22;378;48.844;9.156;2023-03-19T07:17:08;10.40;99.90
790;DHT22;378;48.844;9.156;2023-03-19T07:19:34;10.40;99.90
790;DHT22;378;48.844;9.156;2023-03-19T07:22:01;10.50;99.90
790;DHT22;378;48.844;9.156;2023-03-19T07:24:28;10.60;99.90
790;DHT22;378;48.844;9.156;2023-03-19T07:26:55;10.70;99.90
790;DHT22;378;48.844;9.156;2023-03-19T07:29:23;10.80;99.90
790;DHT22;378;48.844;9.156;2023-03-19T07:31:50;10.90;99.90
790;DHT22;378;48.844;9.156;2023-03-19T07:34:18;10.90;99.90
790;DHT22;378;48.844;9.156;2023-03-19T07:36:45;11.00;99.90
790;DHT22;378;48.844;9.156;2023-03-19T07:39:12;11.10;99.90
790;DHT22;378;48.844;9.156;2023-03-19T07:41:39;11.20;99.90
790;DHT22;378;48.844;9.156;2023-03-19T07:44:06;11.20;99.90
790;DHT22;378;48.844;9.156;2023-03-19T07:46:33;11.30;99.90
790;DHT22;378;48.844;9.156;2023-03-19T07:48:59;11.30;99.90
790;DHT22;378;48.844;9.156;2023-03-19T07:51:27;11.30;99.90
790;DHT22;378;48.844;9.156;2023-03-19T07:53:54;11.30;99.90
790;DHT22;378;48.844;9.156;2023-03-19T07:56:21;11.40;99.90
790;DHT22;378;48.844;9.156;2023-03-19T07:58:48;11.30;99.90
790;DHT22;378;48.844;9.156;2023-03-19T08:01:15;11.20;99.90
790;DHT22;378;48.844;9.156;2023-03-19T08:03:41;11.40;99.90
790;DHT22;378;48.844;9.156;2023-03-19T08:06:08;11.40;99.90
790;DHT22;378;48.844;9.156;2023-03-19T08:08:37;11.60;99.90
790;DHT22;378;48.844;9.156;2023-03-19T08:11:04;11.50;99.90
790;DHT22;378;48.844;9.156;2023-03-19T08:13:31;11.50;99.90
790;DHT22;378;48.844;9.156;2023-03-19T08:15:58;11.60;99.90
790;DHT22;378;48.844;9.156;2023-03-19T08:18:25;11.80;99.90
790;DHT22;378;48.844;9.156;2023-03-19T08:20:52;11.90;99.90
790;DHT22;378;48.844;9.156;2023-03-19T08:23:19;11.90;99.90
790;DHT22;378;48.844;9.156;2023-03-19T08:25:47;11.90;99.90
790;DHT22;378;48.844;9.156;2023-03-19T08:28:16;11.80;99.90
790;DHT22;378;48.844;9.156;2023-03-19T08:30:43;11.80;99.90
790;DHT22;378;48.844;9.156;2023-03-19T08:33:09;11.80;99.90
790;DHT22;378;48.844;9.156;2023-03-19T08:35:36;11.70;99.90
790;DHT22;378;48.844;9.156;2023-03-19T08:38:03;11.80;99.90
790;DHT22;378;48.844;9.156;2023-03-19T08:40:30;11.90;99.90
790;DHT22;378;48.844;9.156;2023-03-19T08:42:58;12.00;99.90
790;DHT22;378;48.844;9.156;2023-03-19T08:45:25;12.20;99.90
790;DHT22;378;48.844;9.156;2023-03-19T08:47:52;12.30;99.90
790;DHT22;378;48.844;9.156;2023-03-19T08:50:19;12.60;99.90
790;DHT22;378;48.844;9.156;2023-03-19T08:52:46;12.80;99.90
790;DHT22;378;48.844;9.156;2023-03-19T08:55:13;13.00;99.90
790;DHT22;378;48.844;9.156;2023-03-19T08:57:40;13.20;99.90
790;DHT22;378;48.844;9.156;2023-03-19T09:00:10;13.50;99.90
790;DHT22;378;48.844;9.156;2023-03-19T09:02:38;13.90;99.90
790;DHT22;378;48.844;9.156;2023-03-19T09:05:05;14.40;99.90
790;DHT22;378;48.844;9.156;2023-03-19T09:07:32;15.30;99.90
790;DHT22;378;48.844;9.156;2023-03-19T09:09:58;15.60;99.90
790;DHT22;378;48.844;9.156;2023-03-19T09:12:25;15.50;99.90
790;DHT22;378;48.844;9.156;2023-03-19T09:14:52;15.80;99.90
790;DHT22;378;48.844;9.156;2023-03-19T09:17:20;15.80;99.90
790;DHT22;378;48.844;9.156;2023-03-19T09:19:47;16.50;99.90
790;DHT22;378;48.844;9.156;2023-03-19T09:22:14;16.80;99.90
790;DHT22;378;48.844;9.156;2023-03-19T09:24:41;16.60;99.90
790;DHT22;378;48.844;9.156;2023-03-19T09:27:08;16.70;99.90
790;DHT22;378;48.844;9.156;2023-03-19T09:29:35;17.20;99.90
790;DHT22;378;48.844;9.156;2023-03-19T09:32:01;18.00;99.90
790;DHT22;378;48.844;9.156;2023-03-19T09:34:30;18.10;99.90
790;DHT22;378;48.844;9.156;2023-03-19T09:36:57;18.00;99.90
790;DHT22;378;48.844;9.156;2023-03-19T09:39:23;17.50;99.90
790;DHT22;378;48.844;9.156;2023-03-19T09:42:06;17.30;99.90
790;DHT22;378;48.844;9.156;2023-03-19T09:44:37;17.00;99.90
790;DHT22;378;48.844;9.156;2023-03-19T09:47:17;17.40;99.90
790;DHT22;378;48.844;9.156;2023-03-19T09:49:50;18.20;99.90
790;DHT22;378;48.844;9.156;2023-03-19T09:52:28;19.10;99.90
790;DHT22;378;48.844;9.156;2023-03-19T09:54:59;20.00;99.90
790;DHT22;378;48.844;9.156;2023-03-19T09:57:26;20.70;99.90
790;DHT22;378;48.844;9.156;2023-03-19T09:59:54;21.30;99.90
790;DHT22;378;48.844;9.156;2023-03-19T10:02:30;20.80;99.90
790;DHT22;378;48.844;9.156;2023-03-19T10:05:18;20.70;99.90
790;DHT22;378;48.844;9.156;2023-03-19T10:08:22;20.10;99.90
790;DHT22;378;48.844;9.156;2023-03-19T10:11:01;20.90;99.90
790;DHT22;378;48.844;9.156;2023-03-19T10:13:40;21.00;99.90
790;DHT22;378;48.844;9.156;2023-03-19T10:16:15;20.90;99.90
790;DHT22;378;48.844;9.156;2023-03-19T10:18:46;20.60;99.90
790;DHT22;378;48.844;9.156;2023-03-19T10:21:19;20.10;99.90
790;DHT22;378;48.844;9.156;2023-03-19T10:23:50;20.50;99.90
790;DHT22;378;48.844;9.156;2023-03-19T10:26:20;21.10;99.90
790;DHT22;378;48.844;9.156;2023-03-19T10:28:58;20.90;99.90
790;DHT22;378;48.844;9.156;2023-03-19T10:31:28;20.90;99.90
790;DHT22;378;48.844;9.156;2023-03-19T10:34:04;21.20;99.90
790;DHT22;378;48.844;9.156;2023-03-19T10:36:36;22.10;99.90
790;DHT22;378;48.844;9.156;2023-03-19T10:39:03;23.90;99.90
790;DHT22;378;48.844;9.156;2023-03-19T10:41:43;24.20;99.90
790;DHT22;378;48.844;9.156;2023-03-19T10:44:18;23.80;99.90
790;DHT22;378;48.844;9.156;2023-03-19T10:46:46;23.10;99.90
790;DHT22;378;48.844;9.156;2023-03-19T10:49:14;22.70;99.90
790;DHT22;378;48.844;9.156;2023-03-19T10:51:44;22.10;99.90
790;DHT22;378;48.844;9.156;2023-03-19T10:54:19;21.90;99.90
790;DHT22;378;48.844;9.156;2023-03-19T10:56:47;22.70;99.90
790;DHT22;378;48.844;9.156;2023-03-19T10:59:22;21.90;99.90
790;DHT22;378;48.844;9.156;2023-03-19T11:01:49;21.70;99.90
790;DHT22;378;48.844;9.156;2023-03-19T11:04:22;21.40;99.90
790;DHT22;378;48.844;9.156;2023-03-19T11:06:52;21.30;99.90
790;DHT22;378;48.844;9.156;2023-03-19T11:09:25;20.90;99.70
790;DHT22;378;48.844;9.156;2023-03-19T11:11:57;20.80;99.90
790;DHT22;378;48.844;9.156;2023-03-19T11:14:34;21.20;99.90
790;DHT22;378;48.844;9.156;2023-03-19T11:17:05;21.90;99.20
790;DHT22;378;48.844;9.156;2023-03-19T11:19:34;21.90;99.50
790;DHT22;378;48.844;9.156;2023-03-19T11:22:15;21.80;99.90
790;DHT22;378;48.844;9.156;2023-03-19T11:24:49;21.80;99.10
790;DHT22;378;48.844;9.156;2023-03-19T11:27:17;21.10;99.50
790;DHT22;378;48.844;9.156;2023-03-19T11:29:45;20.90;99.90
790;DHT22;378;48.844;9.156;2023-03-19T11:32:27;20.90;99.90
790;DHT22;378;48.844;9.156;2023-03-19T11:34:57;20.90;99.90
790;DHT22;378;48.844;9.156;2023-03-19T11:37:32;20.60;99.90
790;DHT22;378;48.844;9.156;2023-03-19T11:40:10;20.30;99.90
790;DHT22;378;48.844;9.156;2023-03-19T11:43:03;20.80;99.90
790;DHT22;378;48.844;9.156;2023-03-19T11:45:34;21.60;99.90
790;DHT22;378;48.844;9.156;2023-03-19T11:48:21;22.90;99.90
790;DHT22;378;48.844;9.156;2023-03-19T11:50:57;23.90;99.20
790;DHT22;378;48.844;9.156;2023-03-19T11:53:30;23.40;98.60
790;DHT22;378;48.844;9.156;2023-03-19T11:56:11;23.60;97.60
790;DHT22;378;48.844;9.156;2023-03-19T11:59:04;24.10;98.50
790;DHT22;378;48.844;9.156;2023-03-19T12:05:02;24.20;97.10
790;DHT22;378;48.844;9.156;2023-03-19T12:07:42;23.60;96.30
790;DHT22;378;48.844;9.156;2023-03-19T12:10:27;22.40;97.20
790;DHT22;378;48.844;9.156;2023-03-19T12:13:01;22.10;97.50
790;DHT22;378;48.844;9.156;2023-03-19T12:15:34;22.20;97.70
790;DHT22;378;48.844;9.156;2023-03-19T12:18:09;22.40;97.60
790;DHT22;378;48.844;9.156;2023-03-19T12:20:51;22.60;97.50
790;DHT22;378;48.844;9.156;2023-03-19T12:23:31;23.10;96.60
790;DHT22;378;48.844;9.156;2023-03-19T12:26:07;23.50;96.80
790;DHT22;378;48.844;9.156;2023-03-19T12:28:38;22.80;97.30
790;DHT22;378;48.844;9.156;2023-03-19T12:34:23;21.50;97.80
790;DHT22;378;48.844;9.156;2023-03-19T12:36:56;22.00;98.30
790;DHT22;378;48.844;9.156;2023-03-19T12:39:26;22.90;98.00
790;DHT22;378;48.844;9.156;2023-03-19T12:41:57;22.60;97.40
790;DHT22;378;48.844;9.156;2023-03-19T12:44:28;21.60;97.80
790;DHT22;378;48.844;9.156;2023-03-19T12:47:01;21.10;98.60
790;DHT22;378;48.844;9.156;2023-03-19T12:49:31;20.10;99.90
790;DHT22;378;48.844;9.156;2023-03-19T12:52:04;19.20;99.90
790;DHT22;378;48.844;9.156;2023-03-19T12:54:35;18.60;99.90
790;DHT22;378;48.844;9.156;2023-03-19T12:57:11;17.70;99.90
790;DHT22;378;48.844;9.156;2023-03-19T12:59:46;17.20;99.90
790;DHT22;378;48.844;9.156;2023-03-19T13:02:18;16.80;99.90
790;DHT22;378;48.844;9.156;2023-03-19T13:04:50;16.40;99.90
790;DHT22;378;48.844;9.156;2023-03-19T13:07:22;16.20;99.90
790;DHT22;378;48.844;9.156;2023-03-19T13:09:55;15.80;99.90
790;DHT22;378;48.844;9.156;2023-03-19T13:12:27;15.40;99.90
790;DHT22;378;48.844;9.156;2023-03-19T13:14:58;14.80;99.90
790;DHT22;378;48.844;9.156;2023-03-19T13:17:33;14.20;99.90
790;DHT22;378;48.844;9.156;2023-03-19T13:20:09;13.60;99.90
790;DHT22;378;48.844;9.156;2023-03-19T13:22:40;13.20;99.90
790;DHT22;378;48.844;9.156;2023-03-19T13:25:15;12.80;99.90
790;DHT22;378;48.844;9.156;2023-03-19T13:27:51;12.50;99.90
790;DHT22;378;48.844;9.156;2023-03-19T13:30:20;12.20;99.90
790;DHT22;378;48.844;9.156;2023-03-19T13:32:49;12.00;99.90
790;DHT22;378;48.844;9.156;2023-03-19T13:35:35;12.10;99.90
790;DHT22;378;48.844;9.156;2023-03-19T13:38:11;12.20;99.90
790;DHT22;378;48.844;9.156;2023-03-19T13:40:46;12.50;99.90
790;DHT22;378;48.844;9.156;2023-03-19T13:43:54;12.70;99.90
790;DHT22;378;48.844;9.156;2023-03-19T13:46:40;13.20;99.90
790;DHT22;378;48.844;9.156;2023-03-19T13:49:31;13.40;99.90
790;DHT22;378;48.844;9.156;2023-03-19T13:52:40;13.60;99.90
790;DHT22;378;48.844;9.156;2023-03-19T13:55:30;13.70;99.90
790;DHT22;378;48.844;9.156;2023-03-19T13:58:04;13.90;99.90
790;DHT22;378;48.844;9.156;2023-03-19T14:00:57;13.80;99.90
790;DHT22;378;48.844;9.156;2023-03-19T14:03:25;13.90;99.90
790;DHT22;378;48.844;9.156;2023-03-19T14:05:54;14.00;99.90
790;DHT22;378;48.844;9.156;2023-03-19T14:08:25;14.20;99.90
790;DHT22;378;48.844;9.156;2023-03-19T14:10:53;14.30;99.90
790;DHT22;378;48.844;9.156;2023-03-19T14:13:28;14.50;99.90
790;DHT22;378;48.844;9.156;2023-03-19T14:16:09;14.60;99.90
790;DHT22;378;48.844;9.156;2023-03-19T14:18:39;14.80;99.90
790;DHT22;378;48.844;9.156;2023-03-19T14:21:10;15.00;99.90
790;DHT22;378;48.844;9.156;2023-03-19T14:23:40;15.30;99.90
790;DHT22;378;48.844;9.156;2023-03-19T14:26:17;15.70;99.90
790;DHT22;378;48.844;9.156;2023-03-19T14:28:48;16.50;99.90
790;DHT22;378;48.844;9.156;2023-03-19T14:31:22;18.10;99.90
790;DHT22;378;48.844;9.156;2023-03-19T14:34:00;19.40;99.90
790;DHT22;378;48.844;9.156;2023-03-19T14:36:29;19.90;99.90
790;DHT22;378;48.844;9.156;2023-03-19T14:38:59;20.90;99.90
790;DHT22;378;48.844;9.156;2023-03-19T14:41:32;21.50;99.90
790;DHT22;378;48.844;9.156;2023-03-19T14:44:17;21.30;99.90
790;DHT22;378;48.844;9.156;2023-03-19T14:47:02;20.00;99.90
790;DHT22;378;48.844;9.156;2023-03-19T14:49:53;18.70;99.90
790;DHT22;378;48.844;9.156;2023-03-19T14:52:24;17.70;99.90
790;DHT22;378;48.844;9.156;2023-03-19T14:54:53;17.00;99.90
790;DHT22;378;48.844;9.156;2023-03-19T14:57:26;16.60;99.90
790;DHT22;378;48.844;9.156;2023-03-19T14:59:54;16.30;99.90
790;DHT22;378;48.844;9.156;2023-03-19T15:02:32;16.00;99.90
790;DHT22;378;48.844;9.156;2023-03-19T15:05:00;15.50;99.90
790;DHT22;378;48.844;9.156;2023-03-19T15:07:29;15.20;99.90
790;DHT22;378;48.844;9.156;2023-03-19T15:10:00;15.00;99.90
790;DHT22;378;48.844;9.156;2023-03-19T15:15:29;14.60;99.90
790;DHT22;378;48.844;9.156;2023-03-19T15:18:01;14.40;99.90
790;DHT22;378;48.844;9.156;2023-03-19T15:20:33;14.40;99.90
790;DHT22;378;48.844;9.156;2023-03-19T15:23:02;14.30;99.90
790;DHT22;378;48.844;9.156;2023-03-19T15:25:31;14.20;99.90
790;DHT22;378;48.844;9.156;2023-03-19T15:28:08;14.40;99.90
790;DHT22;378;48.844;9.156;2023-03-19T15:30:36;14.70;99.90
790;DHT22;378;48.844;9.156;2023-03-19T15:33:16;14.80;99.90
790;DHT22;378;48.844;9.156;2023-03-19T15:35:43;14.90;99.90
790;DHT22;378;48.844;9.156;2023-03-19T15:38:11;14.90;99.90
790;DHT22;378;48.844;9.156;2023-03-19T15:40:40;14.90;99.90
790;DHT22;378;48.844;9.156;2023-03-19T15:43:10;14.70;99.90
790;DHT22;378;48.844;9.156;2023-03-19T15:45:39;14.60;99.90
790;DHT22;378;48.844;9.156;2023-03-19T15:48:12;14.60;99.90
790;DHT22;378;48.844;9.156;2023-03-19T15:50:43;14.40;99.90
790;DHT22;378;48.844;9.156;2023-03-19T15:53:15;14.30;99.90
790;DHT22;378;48.844;9.156;2023-03-19T15:55:43;14.10;99.90
790;DHT22;378;48.844;9.156;2023-03-19T15:58:14;14.00;99.90
790;DHT22;378;48.844;9.156;2023-03-19T16:00:42;13.80;99.90
790;DHT22;378;48.844;9.156;2023-03-19T16:03:16;13.50;99.90
790;DHT22;378;48.844;9.156;2023-03-19T16:05:43;13.20;99.90
790;DHT22;378;48.844;9.156;2023-03-19T16:08:16;13.00;99.90
790;DHT22;378;48.844;9.156;2023-03-19T16:10:44;12.80;99.90
790;DHT22;378;48.844;9.156;2023-03-19T16:13:27;12.60;99.90
790;DHT22;378;48.844;9.156;2023-03-19T16:15:59;12.40;99.90
790;DHT22;378;48.844;9.156;2023-03-19T16:18:29;12.30;99.90
790;DHT22;378;48.844;9.156;2023-03-19T16:21:05;12.10;99.90
790;DHT22;378;48.844;9.156;2023-03-19T16:23:34;11.80;99.90
790;DHT22;378;48.844;9.156;2023-03-19T16:26:11;11.70;99.90
790;DHT22;378;48.844;9.156;2023-03-19T16:28:41;11.60;99.90
790;DHT22;378;48.844;9.156;2023-03-19T16:31:23;11.30;99.90
790;DHT22;378;48.844;9.156;2023-03-19T16:33:54;11.20;99.90
790;DHT22;378;48.844;9.156;2023-03-19T16:36:22;11.10;99.90
790;DHT22;378;48.844;9.156;2023-03-19T16:38:58;11.10;99.90
790;DHT22;378;48.844;9.156;2023-03-19T16:41:38;11.10;99.90
790;DHT22;378;48.844;9.156;2023-03-19T16:44:15;11.10;99.90
790;DHT22;378;48.844;9.156;2023-03-19T16:46:42;11.10;99.90
790;DHT22;378;48.844;9.156;2023-03-19T16:49:11;11.10;99.90
790;DHT22;378;48.844;9.156;2023-03-19T16:51:38;11.00;99.90
790;DHT22;378;48.844;9.156;2023-03-19T16:54:05;10.90;99.90
790;DHT22;378;48.844;9.156;2023-03-19T16:56:32;10.90;99.90
790;DHT22;378;48.844;9.156;2023-03-19T16:59:01;10.90;99.90
790;DHT22;378;48.844;9.156;2023-03-19T17:01:29;11.00;99.90
790;DHT22;378;48.844;9.156;2023-03-19T17:03:57;11.00;99.90
790;DHT22;378;48.844;9.156;2023-03-19T17:06:25;11.00;99.90
790;DHT22;378;48.844;9.156;2023-03-19T17:08:55;11.00;99.90